KAHN/AHN METAR and TAF weather

Enter ICAO airport designator
Station Type Date Time Source
KAHN METAR 2022/01/26 13:51 UTC NOAA

KAHN 261351Z 33004KT 10SM CLR 04/00 A3023 RMK AO2 SLP241 T00390000


Station Type Date Time Source
KAHN Decoded METAR 2022/01/26 13:51 UTC NOAA

ATHENS BEN EPPS AIRPORT, GA, United States (KAHN) 33-57N 083-20W 244M
Jan 26, 2022 - 08:51 AM EST / 2022.01.26 1351 UTC
Wind: from the NNW (330 degrees) at 5 MPH (4 KT):0
Visibility: 10 mile(s):0
Sky conditions: clear
Temperature: 39.0 F (3.9 C)
Dew Point: 32.0 F (0.0 C)
Relative Humidity: 75%
Pressure (altimeter): 30.23 in. Hg (1023 hPa)
ob: KAHN 261351Z 33004KT 10SM CLR 04/00 A3023 RMK AO2 SLP241 T00390000
cycle: 14

Station Type Date Time Source
KAHN TAF 2022/01/26 12:33 UTC NOAA

TAF KAHN 261130Z 2612/2712 35004KT P6SM SKC
FM261400 04007KT P6SM FEW250
FM261900 04005KT P6SM FEW250

Example: see airport list